Ripley, United Kingdom

5:13 AM BST on July 08, 2015 (GMT +0100)
Old Woking | | Change Station
CLOSE
Current Station
Personal Weather Station
Location: Woking,
Elevation: 85 ft
Nearby Weather Stations

Elev 85 ft 51.31 °N, 0.55 °W | Updated 3 seconds ago

Overcast
Overcast
59.4 °F
Feels Like 59.4 °F
N
1.8
Wind Variable Wind from WNW
Gusts 2.5 mph

Today
High -- | Low -- °F
--% Chance of Precip.
Yesterday
High -- | Low -- °F
Precip. -- in
4:55 AM 9:17 PM
Waning Gibbous, 58% visible
Pressure 29.77 in
Visibility 6.2 miles
Clouds Scattered Clouds 1100 ft
Mostly Cloudy 1500 ft
Overcast 3000 ft
Dew Point 52 °F
Humidity 78%
Rainfall 0.00 in
Snow Depth Not available.
UV 0.0 out of 12
Pollen Not available.
Air Quality Not available.
Flu Activity Not available.
METAR EGVO 080350Z 23015KT 9999 5000SW -RADZ SCT011 BKN015 OVC030 14/11 Q1008 GRN

More Conditions Fewer Conditions

Pressure 29.77 in
Visibility 6.2 miles
Clouds Scattered Clouds 1100 ft
Mostly Cloudy 1500 ft
Overcast 3000 ft
Dew Point 52 °F
Humidity 78%
Rainfall 0.00 in
Snow Depth Not available.
UV 0.0 out of 12
Pollen Not available.
Air Quality Not available.
Flu Activity Not available.
METAR EGVO 080350Z 23015KT 9999 5000SW -RADZ SCT011 BKN015 OVC030 14/11 Q1008 GRN

More Conditions Fewer Conditions

10-Day Weather Forecast

×

Almanac

Astronomy

Jul. 08, 2015 Rise Set
Actual Time
Civil Twilight
Nautical Twilight
Astronomical Twilight
Moon
Length of Visible Light
Length of Day
Tomorrow will be .
, % of the Moon is Illuminated

Today's Extremes

Country Highs Country Lows

Community

WunderPhotos

Upload Photos

1,836,048 photos uploaded!

WunderBlogs® & News

Nearby

Air Quality

  Air Quality AQ Index Pollutant
Not available.

Snow Depth

Station Depth Elevation

Earthquake Activity

City Distance Mag. Time & Date
Minimum magnitude displayed is 2.5.

Coastal Water Temperatures

Place Temperature

Stations

Nearby Weather Stations

Station Location Temp. Windchill Dew Point Humidity Wind Precip. Elev Updated Type